CheckWX is a tool to help pilots better visualize weather data.  It is not intended as a substitute for an official pre-flight weather briefing.

08:02:41 UTC

EGDY METAR
RNAS Yeovilton Airport
Yeovil, United Kingdom
Current

1 hour ago

EGDY 260650Z AUTO 23005KT 9999 ///////// 14/12 Q1016
Observed
May-26 @ 06:50 UTC
Wind
  • 230° at 5 KTS
Visibility
10,000+ meters
Temperature
14°C / 57°F
Dewpoint
12°C / 54°F
Humidity
88%
Altimeter
30" Hg
Pressure
1015.92 hPa
Previous

2 hours ago

EGDY 260550Z AUTO 24004KT 9999 ///////// 13/12 Q1016
Observed
May-26 @ 05:50 UTC
Wind
  • 240° at 4 KTS
Visibility
10,000+ meters
Temperature
13°C / 55°F
Dewpoint
12°C / 54°F
Humidity
94%
Altimeter
30" Hg
Pressure
1015.92 hPa
Previous

3 hours ago

EGDY 260450Z AUTO 23005KT 9999 ///////// 12/11 Q1016
Observed
May-26 @ 04:50 UTC
Wind
  • 230° at 5 KTS
Visibility
10,000+ meters
Temperature
12°C / 54°F
Dewpoint
11°C / 52°F
Humidity
94%
Altimeter
30" Hg
Pressure
1015.92 hPa